sensor_id;sensor_type;location;lat;lon;timestamp;temperature;humidity
12726;DHT22;6427;49.754;6.106;2023-07-31T00:01:41;19.50;97.80
12726;DHT22;6427;49.754;6.106;2023-07-31T00:04:08;19.40;98.40
12726;DHT22;6427;49.754;6.106;2023-07-31T00:06:36;19.30;99.00
12726;DHT22;6427;49.754;6.106;2023-07-31T00:09:04;19.20;99.90
12726;DHT22;6427;49.754;6.106;2023-07-31T00:11:32;19.20;99.90
12726;DHT22;6427;49.754;6.106;2023-07-31T00:14:00;19.40;99.90
12726;DHT22;6427;49.754;6.106;2023-07-31T00:16:28;19.40;99.90
12726;DHT22;6427;49.754;6.106;2023-07-31T00:18:55;19.30;99.90
12726;DHT22;6427;49.754;6.106;2023-07-31T00:21:23;19.30;99.90
12726;DHT22;6427;49.754;6.106;2023-07-31T00:23:51;19.20;99.90
12726;DHT22;6427;49.754;6.106;2023-07-31T00:26:19;19.20;99.90
12726;DHT22;6427;49.754;6.106;2023-07-31T00:28:47;19.40;99.90
12726;DHT22;6427;49.754;6.106;2023-07-31T00:31:14;19.60;99.90
12726;DHT22;6427;49.754;6.106;2023-07-31T00:33:42;19.50;99.90
12726;DHT22;6427;49.754;6.106;2023-07-31T00:36:09;19.40;99.90
12726;DHT22;6427;49.754;6.106;2023-07-31T00:38:37;19.20;99.90
12726;DHT22;6427;49.754;6.106;2023-07-31T00:41:05;19.40;99.90
12726;DHT22;6427;49.754;6.106;2023-07-31T00:43:32;19.30;99.90
12726;DHT22;6427;49.754;6.106;2023-07-31T00:46:00;19.20;99.90
12726;DHT22;6427;49.754;6.106;2023-07-31T00:48:27;19.40;99.90
12726;DHT22;6427;49.754;6.106;2023-07-31T00:50:55;19.30;99.90
12726;DHT22;6427;49.754;6.106;2023-07-31T00:53:22;19.20;99.90
12726;DHT22;6427;49.754;6.106;2023-07-31T00:55:50;19.10;99.90
12726;DHT22;6427;49.754;6.106;2023-07-31T00:58:18;19.10;99.90
12726;DHT22;6427;49.754;6.106;2023-07-31T01:00:45;19.00;99.90
12726;DHT22;6427;49.754;6.106;2023-07-31T01:03:13;19.00;99.90
12726;DHT22;6427;49.754;6.106;2023-07-31T01:08:42;18.90;99.90
12726;DHT22;6427;49.754;6.106;2023-07-31T01:11:19;18.90;99.90
12726;DHT22;6427;49.754;6.106;2023-07-31T01:13:45;18.90;99.90
12726;DHT22;6427;49.754;6.106;2023-07-31T01:16:13;18.80;99.90
12726;DHT22;6427;49.754;6.106;2023-07-31T01:18:41;18.80;99.90
12726;DHT22;6427;49.754;6.106;2023-07-31T01:24:35;19.00;99.90
12726;DHT22;6427;49.754;6.106;2023-07-31T01:26:19;19.00;99.90
12726;DHT22;6427;49.754;6.106;2023-07-31T01:28:55;19.20;99.90
12726;DHT22;6427;49.754;6.106;2023-07-31T01:31:20;19.20;99.90
12726;DHT22;6427;49.754;6.106;2023-07-31T01:33:45;19.10;99.90
12726;DHT22;6427;49.754;6.106;2023-07-31T01:36:13;19.00;99.90
12726;DHT22;6427;49.754;6.106;2023-07-31T01:38:40;19.00;99.90
12726;DHT22;6427;49.754;6.106;2023-07-31T01:41:08;18.90;99.90
12726;DHT22;6427;49.754;6.106;2023-07-31T01:43:36;19.20;99.90
12726;DHT22;6427;49.754;6.106;2023-07-31T01:46:03;19.10;99.90
12726;DHT22;6427;49.754;6.106;2023-07-31T01:48:31;19.00;99.90
12726;DHT22;6427;49.754;6.106;2023-07-31T01:51:00;19.00;99.90
12726;DHT22;6427;49.754;6.106;2023-07-31T01:53:27;19.10;99.90
12726;DHT22;6427;49.754;6.106;2023-07-31T01:55:56;19.10;99.90
12726;DHT22;6427;49.754;6.106;2023-07-31T01:58:23;19.10;99.90
12726;DHT22;6427;49.754;6.106;2023-07-31T02:00:52;19.10;99.90
12726;DHT22;6427;49.754;6.106;2023-07-31T02:03:20;19.10;99.90
12726;DHT22;6427;49.754;6.106;2023-07-31T02:05:48;19.10;99.90
12726;DHT22;6427;49.754;6.106;2023-07-31T02:08:16;19.10;99.90
12726;DHT22;6427;49.754;6.106;2023-07-31T02:10:44;19.10;99.90
12726;DHT22;6427;49.754;6.106;2023-07-31T02:13:11;19.00;99.90
12726;DHT22;6427;49.754;6.106;2023-07-31T02:15:39;19.00;99.90
12726;DHT22;6427;49.754;6.106;2023-07-31T02:18:06;18.80;99.90
12726;DHT22;6427;49.754;6.106;2023-07-31T02:20:34;18.80;99.90
12726;DHT22;6427;49.754;6.106;2023-07-31T02:23:02;18.80;99.90
12726;DHT22;6427;49.754;6.106;2023-07-31T02:25:30;18.70;99.90
12726;DHT22;6427;49.754;6.106;2023-07-31T02:27:58;18.70;99.90
12726;DHT22;6427;49.754;6.106;2023-07-31T02:30:26;18.70;99.90
12726;DHT22;6427;49.754;6.106;2023-07-31T02:32:54;18.60;99.90
12726;DHT22;6427;49.754;6.106;2023-07-31T02:35:22;18.60;99.90
12726;DHT22;6427;49.754;6.106;2023-07-31T02:37:50;18.60;99.90
12726;DHT22;6427;49.754;6.106;2023-07-31T02:40:19;18.60;99.90
12726;DHT22;6427;49.754;6.106;2023-07-31T02:42:46;18.60;99.90
12726;DHT22;6427;49.754;6.106;2023-07-31T02:45:14;18.60;99.90
12726;DHT22;6427;49.754;6.106;2023-07-31T02:47:41;18.50;99.90
12726;DHT22;6427;49.754;6.106;2023-07-31T02:50:09;18.80;99.90
12726;DHT22;6427;49.754;6.106;2023-07-31T02:52:37;18.70;99.90
12726;DHT22;6427;49.754;6.106;2023-07-31T02:55:04;18.90;99.90
12726;DHT22;6427;49.754;6.106;2023-07-31T02:57:32;19.10;99.90
12726;DHT22;6427;49.754;6.106;2023-07-31T03:00:00;18.90;99.90
12726;DHT22;6427;49.754;6.106;2023-07-31T03:02:28;18.90;99.90
12726;DHT22;6427;49.754;6.106;2023-07-31T03:04:55;18.80;99.90
12726;DHT22;6427;49.754;6.106;2023-07-31T03:07:23;18.80;99.90
12726;DHT22;6427;49.754;6.106;2023-07-31T03:09:51;18.70;99.90
12726;DHT22;6427;49.754;6.106;2023-07-31T03:12:19;18.70;99.90
12726;DHT22;6427;49.754;6.106;2023-07-31T03:14:46;18.70;99.90
12726;DHT22;6427;49.754;6.106;2023-07-31T03:17:15;18.90;99.90
12726;DHT22;6427;49.754;6.106;2023-07-31T03:19:43;18.80;99.90
12726;DHT22;6427;49.754;6.106;2023-07-31T03:22:11;18.80;99.90
12726;DHT22;6427;49.754;6.106;2023-07-31T03:24:38;18.70;99.90
12726;DHT22;6427;49.754;6.106;2023-07-31T03:27:06;18.70;99.90
12726;DHT22;6427;49.754;6.106;2023-07-31T03:29:34;18.70;99.90
12726;DHT22;6427;49.754;6.106;2023-07-31T03:32:01;18.60;99.90
12726;DHT22;6427;49.754;6.106;2023-07-31T03:34:29;18.60;99.90
12726;DHT22;6427;49.754;6.106;2023-07-31T03:36:56;18.60;99.90
12726;DHT22;6427;49.754;6.106;2023-07-31T03:39:25;18.70;99.90
12726;DHT22;6427;49.754;6.106;2023-07-31T03:41:52;18.70;99.90
12726;DHT22;6427;49.754;6.106;2023-07-31T03:44:20;18.70;99.90
12726;DHT22;6427;49.754;6.106;2023-07-31T03:46:48;18.60;99.90
12726;DHT22;6427;49.754;6.106;2023-07-31T03:49:15;18.60;99.90
12726;DHT22;6427;49.754;6.106;2023-07-31T03:51:43;18.50;99.90
12726;DHT22;6427;49.754;6.106;2023-07-31T03:54:10;18.50;99.90
12726;DHT22;6427;49.754;6.106;2023-07-31T03:56:38;18.60;99.90
12726;DHT22;6427;49.754;6.106;2023-07-31T03:59:06;18.60;99.90
12726;DHT22;6427;49.754;6.106;2023-07-31T04:01:33;18.50;99.90
12726;DHT22;6427;49.754;6.106;2023-07-31T04:04:01;18.40;99.90
12726;DHT22;6427;49.754;6.106;2023-07-31T04:06:28;18.50;99.90
12726;DHT22;6427;49.754;6.106;2023-07-31T04:08:56;18.40;99.90
12726;DHT22;6427;49.754;6.106;2023-07-31T04:11:24;18.30;99.90
12726;DHT22;6427;49.754;6.106;2023-07-31T04:13:51;18.30;99.90
12726;DHT22;6427;49.754;6.106;2023-07-31T04:16:19;18.30;99.90
12726;DHT22;6427;49.754;6.106;2023-07-31T04:18:46;18.20;99.90
12726;DHT22;6427;49.754;6.106;2023-07-31T04:21:14;18.20;99.90
12726;DHT22;6427;49.754;6.106;2023-07-31T04:23:42;18.20;99.90
12726;DHT22;6427;49.754;6.106;2023-07-31T04:26:10;18.20;99.90
12726;DHT22;6427;49.754;6.106;2023-07-31T04:28:38;18.40;99.90
12726;DHT22;6427;49.754;6.106;2023-07-31T04:31:06;18.40;99.90
12726;DHT22;6427;49.754;6.106;2023-07-31T04:33:33;18.40;99.90
12726;DHT22;6427;49.754;6.106;2023-07-31T04:36:02;18.30;99.90
12726;DHT22;6427;49.754;6.106;2023-07-31T04:38:29;18.30;99.90
12726;DHT22;6427;49.754;6.106;2023-07-31T04:40:58;18.30;99.90
12726;DHT22;6427;49.754;6.106;2023-07-31T04:43:25;18.30;99.90
12726;DHT22;6427;49.754;6.106;2023-07-31T04:45:53;18.30;99.90
12726;DHT22;6427;49.754;6.106;2023-07-31T04:48:20;18.20;99.90
12726;DHT22;6427;49.754;6.106;2023-07-31T04:50:48;18.20;99.90
12726;DHT22;6427;49.754;6.106;2023-07-31T04:53:16;18.20;99.90
12726;DHT22;6427;49.754;6.106;2023-07-31T04:55:43;18.20;99.90
12726;DHT22;6427;49.754;6.106;2023-07-31T04:58:11;18.20;99.90
12726;DHT22;6427;49.754;6.106;2023-07-31T05:00:38;18.20;99.90
12726;DHT22;6427;49.754;6.106;2023-07-31T05:03:06;18.30;99.90
12726;DHT22;6427;49.754;6.106;2023-07-31T05:05:34;18.30;99.90
12726;DHT22;6427;49.754;6.106;2023-07-31T05:08:01;18.30;99.90
12726;DHT22;6427;49.754;6.106;2023-07-31T05:10:30;18.30;99.90
12726;DHT22;6427;49.754;6.106;2023-07-31T05:12:57;18.30;99.90
12726;DHT22;6427;49.754;6.106;2023-07-31T05:15:25;18.30;99.90
12726;DHT22;6427;49.754;6.106;2023-07-31T05:17:52;18.50;99.90
12726;DHT22;6427;49.754;6.106;2023-07-31T05:20:20;18.50;99.90
12726;DHT22;6427;49.754;6.106;2023-07-31T05:22:48;18.50;99.90
12726;DHT22;6427;49.754;6.106;2023-07-31T05:25:15;18.50;99.90
12726;DHT22;6427;49.754;6.106;2023-07-31T05:27:43;18.40;99.90
12726;DHT22;6427;49.754;6.106;2023-07-31T05:30:10;18.40;99.90
12726;DHT22;6427;49.754;6.106;2023-07-31T05:32:38;18.40;99.90
12726;DHT22;6427;49.754;6.106;2023-07-31T05:35:06;18.40;99.90
12726;DHT22;6427;49.754;6.106;2023-07-31T05:37:33;18.40;99.90
12726;DHT22;6427;49.754;6.106;2023-07-31T05:40:01;18.50;99.90
12726;DHT22;6427;49.754;6.106;2023-07-31T05:42:28;18.70;99.90
12726;DHT22;6427;49.754;6.106;2023-07-31T05:44:56;18.70;99.90
12726;DHT22;6427;49.754;6.106;2023-07-31T05:47:23;19.00;99.90
12726;DHT22;6427;49.754;6.106;2023-07-31T05:49:51;19.00;99.90
12726;DHT22;6427;49.754;6.106;2023-07-31T05:52:19;19.10;99.90
12726;DHT22;6427;49.754;6.106;2023-07-31T05:54:46;19.00;99.90
12726;DHT22;6427;49.754;6.106;2023-07-31T05:57:14;19.00;99.90
12726;DHT22;6427;49.754;6.106;2023-07-31T05:59:41;19.00;99.90
12726;DHT22;6427;49.754;6.106;2023-07-31T06:02:09;18.90;99.90
12726;DHT22;6427;49.754;6.106;2023-07-31T06:04:37;18.90;99.90
12726;DHT22;6427;49.754;6.106;2023-07-31T06:07:04;18.90;99.90
12726;DHT22;6427;49.754;6.106;2023-07-31T06:09:32;19.00;99.90
12726;DHT22;6427;49.754;6.106;2023-07-31T06:11:59;19.00;99.90
12726;DHT22;6427;49.754;6.106;2023-07-31T06:14:27;19.00;99.90
12726;DHT22;6427;49.754;6.106;2023-07-31T06:16:55;19.10;99.90
12726;DHT22;6427;49.754;6.106;2023-07-31T06:19:22;19.10;99.90
12726;DHT22;6427;49.754;6.106;2023-07-31T06:21:50;19.20;99.90
12726;DHT22;6427;49.754;6.106;2023-07-31T06:24:17;19.40;99.90
12726;DHT22;6427;49.754;6.106;2023-07-31T06:26:46;19.40;99.90
12726;DHT22;6427;49.754;6.106;2023-07-31T06:29:13;19.40;99.90
12726;DHT22;6427;49.754;6.106;2023-07-31T06:31:41;19.30;99.90
12726;DHT22;6427;49.754;6.106;2023-07-31T06:34:09;19.30;99.90
12726;DHT22;6427;49.754;6.106;2023-07-31T06:36:36;19.20;99.90
12726;DHT22;6427;49.754;6.106;2023-07-31T06:39:04;19.20;99.90
12726;DHT22;6427;49.754;6.106;2023-07-31T06:41:32;19.20;99.90
12726;DHT22;6427;49.754;6.106;2023-07-31T06:44:01;19.20;99.90
12726;DHT22;6427;49.754;6.106;2023-07-31T06:46:28;19.20;99.90
12726;DHT22;6427;49.754;6.106;2023-07-31T06:48:56;19.20;99.90
12726;DHT22;6427;49.754;6.106;2023-07-31T06:51:23;19.50;99.90
12726;DHT22;6427;49.754;6.106;2023-07-31T06:53:51;19.50;99.90
12726;DHT22;6427;49.754;6.106;2023-07-31T06:56:19;19.50;99.90
12726;DHT22;6427;49.754;6.106;2023-07-31T06:58:46;19.40;99.90
12726;DHT22;6427;49.754;6.106;2023-07-31T07:01:14;19.40;99.90
12726;DHT22;6427;49.754;6.106;2023-07-31T07:03:41;19.40;99.90
12726;DHT22;6427;49.754;6.106;2023-07-31T07:06:09;19.40;99.90
12726;DHT22;6427;49.754;6.106;2023-07-31T07:08:37;19.60;99.90
12726;DHT22;6427;49.754;6.106;2023-07-31T07:11:05;19.80;99.90
12726;DHT22;6427;49.754;6.106;2023-07-31T07:13:33;19.80;99.90
12726;DHT22;6427;49.754;6.106;2023-07-31T07:16:00;19.80;99.90
12726;DHT22;6427;49.754;6.106;2023-07-31T07:18:29;19.70;99.90
12726;DHT22;6427;49.754;6.106;2023-07-31T07:20:56;19.70;99.90
12726;DHT22;6427;49.754;6.106;2023-07-31T07:23:24;19.80;99.90
12726;DHT22;6427;49.754;6.106;2023-07-31T07:25:51;19.80;99.90
12726;DHT22;6427;49.754;6.106;2023-07-31T07:28:19;19.80;99.90
12726;DHT22;6427;49.754;6.106;2023-07-31T07:30:50;19.80;99.90
12726;DHT22;6427;49.754;6.106;2023-07-31T07:33:14;19.90;99.90
12726;DHT22;6427;49.754;6.106;2023-07-31T07:35:42;19.90;99.90
12726;DHT22;6427;49.754;6.106;2023-07-31T07:38:09;19.90;99.90
12726;DHT22;6427;49.754;6.106;2023-07-31T07:40:40;19.90;99.90
12726;DHT22;6427;49.754;6.106;2023-07-31T07:43:07;19.90;99.90
12726;DHT22;6427;49.754;6.106;2023-07-31T07:45:35;20.10;99.90
12726;DHT22;6427;49.754;6.106;2023-07-31T07:48:03;20.20;99.90
12726;DHT22;6427;49.754;6.106;2023-07-31T07:50:31;20.10;99.90
12726;DHT22;6427;49.754;6.106;2023-07-31T07:52:58;20.10;99.90
12726;DHT22;6427;49.754;6.106;2023-07-31T07:55:26;20.20;99.90
12726;DHT22;6427;49.754;6.106;2023-07-31T07:57:54;20.30;99.90
12726;DHT22;6427;49.754;6.106;2023-07-31T08:00:21;20.40;99.90
12726;DHT22;6427;49.754;6.106;2023-07-31T08:02:50;20.60;99.90
12726;DHT22;6427;49.754;6.106;2023-07-31T08:05:17;20.60;99.90
12726;DHT22;6427;49.754;6.106;2023-07-31T08:07:45;20.70;99.90
12726;DHT22;6427;49.754;6.106;2023-07-31T08:10:12;20.80;99.90
12726;DHT22;6427;49.754;6.106;2023-07-31T08:12:40;20.80;99.90
12726;DHT22;6427;49.754;6.106;2023-07-31T08:15:08;20.90;99.90
12726;DHT22;6427;49.754;6.106;2023-07-31T08:17:35;21.10;99.70
12726;DHT22;6427;49.754;6.106;2023-07-31T08:20:04;21.10;99.30
12726;DHT22;6427;49.754;6.106;2023-07-31T08:22:31;21.10;99.30
12726;DHT22;6427;49.754;6.106;2023-07-31T08:24:59;21.00;99.30
12726;DHT22;6427;49.754;6.106;2023-07-31T08:27:27;21.00;99.20
12726;DHT22;6427;49.754;6.106;2023-07-31T08:29:55;21.00;99.20
12726;DHT22;6427;49.754;6.106;2023-07-31T08:32:22;20.90;99.20
12726;DHT22;6427;49.754;6.106;2023-07-31T08:34:50;21.10;98.90
12726;DHT22;6427;49.754;6.106;2023-07-31T08:37:18;21.10;99.00
12726;DHT22;6427;49.754;6.106;2023-07-31T08:39:45;21.00;98.90
12726;DHT22;6427;49.754;6.106;2023-07-31T08:42:13;21.00;99.10
12726;DHT22;6427;49.754;6.106;2023-07-31T08:44:40;21.00;99.20
12726;DHT22;6427;49.754;6.106;2023-07-31T08:47:08;21.00;99.20
12726;DHT22;6427;49.754;6.106;2023-07-31T08:49:36;21.30;99.20
12726;DHT22;6427;49.754;6.106;2023-07-31T08:52:04;21.30;99.00
12726;DHT22;6427;49.754;6.106;2023-07-31T08:54:32;21.30;99.00
12726;DHT22;6427;49.754;6.106;2023-07-31T08:57:00;21.40;98.20
12726;DHT22;6427;49.754;6.106;2023-07-31T08:59:28;21.40;98.20
12726;DHT22;6427;49.754;6.106;2023-07-31T09:01:55;21.40;97.70
12726;DHT22;6427;49.754;6.106;2023-07-31T09:04:23;21.40;97.40
12726;DHT22;6427;49.754;6.106;2023-07-31T09:06:51;21.40;97.00
12726;DHT22;6427;49.754;6.106;2023-07-31T09:09:19;21.60;96.60
12726;DHT22;6427;49.754;6.106;2023-07-31T09:11:46;21.60;96.50
12726;DHT22;6427;49.754;6.106;2023-07-31T09:14:14;21.50;96.40
12726;DHT22;6427;49.754;6.106;2023-07-31T09:16:51;21.50;96.50
12726;DHT22;6427;49.754;6.106;2023-07-31T09:19:35;21.70;95.90
12726;DHT22;6427;49.754;6.106;2023-07-31T09:22:02;21.70;95.90
12726;DHT22;6427;49.754;6.106;2023-07-31T09:24:31;21.70;95.80
12726;DHT22;6427;49.754;6.106;2023-07-31T09:26:58;21.70;95.80
12726;DHT22;6427;49.754;6.106;2023-07-31T09:29:27;21.90;95.50
12726;DHT22;6427;49.754;6.106;2023-07-31T09:31:54;21.90;95.30
12726;DHT22;6427;49.754;6.106;2023-07-31T09:34:28;21.90;95.10
12726;DHT22;6427;49.754;6.106;2023-07-31T09:36:49;21.90;95.30
12726;DHT22;6427;49.754;6.106;2023-07-31T09:39:17;21.90;95.20
12726;DHT22;6427;49.754;6.106;2023-07-31T09:41:45;21.90;95.10
12726;DHT22;6427;49.754;6.106;2023-07-31T09:44:12;21.90;95.00
12726;DHT22;6427;49.754;6.106;2023-07-31T09:46:39;21.90;94.90
12726;DHT22;6427;49.754;6.106;2023-07-31T09:49:11;21.80;94.80
12726;DHT22;6427;49.754;6.106;2023-07-31T09:51:39;21.80;94.80
12726;DHT22;6427;49.754;6.106;2023-07-31T09:54:09;21.70;94.90
12726;DHT22;6427;49.754;6.106;2023-07-31T09:56:47;21.80;94.90
12726;DHT22;6427;49.754;6.106;2023-07-31T09:59:05;21.70;94.70
12726;DHT22;6427;49.754;6.106;2023-07-31T10:01:32;21.70;94.70
12726;DHT22;6427;49.754;6.106;2023-07-31T10:04:00;21.60;95.10
12726;DHT22;6427;49.754;6.106;2023-07-31T10:06:28;21.50;95.40
12726;DHT22;6427;49.754;6.106;2023-07-31T10:08:55;21.40;95.80
12726;DHT22;6427;49.754;6.106;2023-07-31T10:11:23;21.30;96.00
12726;DHT22;6427;49.754;6.106;2023-07-31T10:13:50;21.20;96.30
12726;DHT22;6427;49.754;6.106;2023-07-31T10:16:18;21.20;96.80
12726;DHT22;6427;49.754;6.106;2023-07-31T10:18:46;21.10;97.10
12726;DHT22;6427;49.754;6.106;2023-07-31T10:21:13;21.20;97.40
12726;DHT22;6427;49.754;6.106;2023-07-31T10:23:41;21.40;97.50
12726;DHT22;6427;49.754;6.106;2023-07-31T10:26:08;21.40;97.40
12726;DHT22;6427;49.754;6.106;2023-07-31T10:28:37;21.50;97.70
12726;DHT22;6427;49.754;6.106;2023-07-31T10:31:04;21.50;97.70
12726;DHT22;6427;49.754;6.106;2023-07-31T10:33:32;21.50;97.60
12726;DHT22;6427;49.754;6.106;2023-07-31T10:36:18;21.40;97.70
12726;DHT22;6427;49.754;6.106;2023-07-31T10:38:45;21.40;97.90
12726;DHT22;6427;49.754;6.106;2023-07-31T10:41:13;21.50;98.10
12726;DHT22;6427;49.754;6.106;2023-07-31T10:43:40;21.50;98.20
12726;DHT22;6427;49.754;6.106;2023-07-31T10:46:14;21.50;98.20
12726;DHT22;6427;49.754;6.106;2023-07-31T10:48:42;21.70;97.50
12726;DHT22;6427;49.754;6.106;2023-07-31T10:51:10;21.70;97.20
12726;DHT22;6427;49.754;6.106;2023-07-31T10:53:37;21.60;97.10
12726;DHT22;6427;49.754;6.106;2023-07-31T10:56:06;21.50;97.50
12726;DHT22;6427;49.754;6.106;2023-07-31T10:58:32;21.30;97.70
12726;DHT22;6427;49.754;6.106;2023-07-31T11:01:01;21.20;98.10
12726;DHT22;6427;49.754;6.106;2023-07-31T11:03:47;20.90;98.80
12726;DHT22;6427;49.754;6.106;2023-07-31T11:06:14;20.90;98.80
12726;DHT22;6427;49.754;6.106;2023-07-31T11:08:43;20.70;99.40
12726;DHT22;6427;49.754;6.106;2023-07-31T11:11:10;20.70;99.90
12726;DHT22;6427;49.754;6.106;2023-07-31T11:13:52;20.60;99.90
12726;DHT22;6427;49.754;6.106;2023-07-31T11:16:24;20.70;99.90
12726;DHT22;6427;49.754;6.106;2023-07-31T11:18:52;20.70;99.90
12726;DHT22;6427;49.754;6.106;2023-07-31T11:21:20;20.70;99.90
12726;DHT22;6427;49.754;6.106;2023-07-31T11:23:47;20.80;99.90
12726;DHT22;6427;49.754;6.106;2023-07-31T11:26:15;20.80;99.90
12726;DHT22;6427;49.754;6.106;2023-07-31T11:28:42;20.80;99.90
12726;DHT22;6427;49.754;6.106;2023-07-31T11:31:10;20.90;99.90
12726;DHT22;6427;49.754;6.106;2023-07-31T11:33:37;20.90;99.90
12726;DHT22;6427;49.754;6.106;2023-07-31T11:36:05;21.10;99.70
12726;DHT22;6427;49.754;6.106;2023-07-31T11:38:33;21.10;99.60
12726;DHT22;6427;49.754;6.106;2023-07-31T11:41:02;20.90;99.70
12726;DHT22;6427;49.754;6.106;2023-07-31T11:43:31;20.90;99.70
12726;DHT22;6427;49.754;6.106;2023-07-31T11:46:00;20.70;99.90
12726;DHT22;6427;49.754;6.106;2023-07-31T11:48:29;20.60;99.90
12726;DHT22;6427;49.754;6.106;2023-07-31T11:50:59;20.50;99.90
12726;DHT22;6427;49.754;6.106;2023-07-31T11:53:36;20.30;99.90
12726;DHT22;6427;49.754;6.106;2023-07-31T11:56:03;20.30;99.90
12726;DHT22;6427;49.754;6.106;2023-07-31T11:58:30;20.20;99.90
12726;DHT22;6427;49.754;6.106;2023-07-31T12:00:58;20.30;99.90
12726;DHT22;6427;49.754;6.106;2023-07-31T12:03:25;20.10;99.90
12726;DHT22;6427;49.754;6.106;2023-07-31T12:05:53;20.00;99.90
12726;DHT22;6427;49.754;6.106;2023-07-31T12:08:21;19.90;99.90
12726;DHT22;6427;49.754;6.106;2023-07-31T12:10:53;19.80;99.90
12726;DHT22;6427;49.754;6.106;2023-07-31T12:13:22;19.80;99.90
12726;DHT22;6427;49.754;6.106;2023-07-31T12:15:53;19.80;99.90
12726;DHT22;6427;49.754;6.106;2023-07-31T12:18:21;20.00;99.90
12726;DHT22;6427;49.754;6.106;2023-07-31T12:20:46;20.00;99.90
12726;DHT22;6427;49.754;6.106;2023-07-31T12:23:20;20.00;99.90
12726;DHT22;6427;49.754;6.106;2023-07-31T12:25:47;20.00;99.90
12726;DHT22;6427;49.754;6.106;2023-07-31T12:28:15;20.00;99.90
12726;DHT22;6427;49.754;6.106;2023-07-31T12:30:43;20.00;99.90
12726;DHT22;6427;49.754;6.106;2023-07-31T12:33:14;20.00;99.90
12726;DHT22;6427;49.754;6.106;2023-07-31T12:35:46;20.30;99.90
12726;DHT22;6427;49.754;6.106;2023-07-31T12:38:09;20.50;99.90
12726;DHT22;6427;49.754;6.106;2023-07-31T12:40:40;20.40;99.90
12726;DHT22;6427;49.754;6.106;2023-07-31T12:43:07;20.50;99.90
12726;DHT22;6427;49.754;6.106;2023-07-31T12:45:35;20.70;99.90
12726;DHT22;6427;49.754;6.106;2023-07-31T12:48:03;20.80;99.90
12726;DHT22;6427;49.754;6.106;2023-07-31T12:50:31;20.80;99.90
12726;DHT22;6427;49.754;6.106;2023-07-31T12:52:58;20.90;99.90
12726;DHT22;6427;49.754;6.106;2023-07-31T12:55:26;20.90;99.90
12726;DHT22;6427;49.754;6.106;2023-07-31T12:57:54;21.00;99.90
12726;DHT22;6427;49.754;6.106;2023-07-31T13:00:22;21.00;99.90
12726;DHT22;6427;49.754;6.106;2023-07-31T13:02:49;21.00;99.90
12726;DHT22;6427;49.754;6.106;2023-07-31T13:05:17;20.90;99.90
12726;DHT22;6427;49.754;6.106;2023-07-31T13:07:45;20.90;99.90
12726;DHT22;6427;49.754;6.106;2023-07-31T13:10:12;20.90;99.90
12726;DHT22;6427;49.754;6.106;2023-07-31T13:12:40;21.10;99.90
12726;DHT22;6427;49.754;6.106;2023-07-31T13:15:08;21.10;99.90
12726;DHT22;6427;49.754;6.106;2023-07-31T13:17:36;21.00;99.90
12726;DHT22;6427;49.754;6.106;2023-07-31T13:20:04;21.00;99.90
12726;DHT22;6427;49.754;6.106;2023-07-31T13:22:31;21.00;99.90
12726;DHT22;6427;49.754;6.106;2023-07-31T13:24:59;20.90;99.90
12726;DHT22;6427;49.754;6.106;2023-07-31T13:27:27;20.90;99.90
12726;DHT22;6427;49.754;6.106;2023-07-31T13:29:55;20.80;99.90
12726;DHT22;6427;49.754;6.106;2023-07-31T13:32:23;20.80;99.90
12726;DHT22;6427;49.754;6.106;2023-07-31T13:34:51;20.80;99.90
12726;DHT22;6427;49.754;6.106;2023-07-31T13:37:18;20.80;99.90
12726;DHT22;6427;49.754;6.106;2023-07-31T13:39:46;20.70;99.90
12726;DHT22;6427;49.754;6.106;2023-07-31T13:42:13;20.70;99.90
12726;DHT22;6427;49.754;6.106;2023-07-31T13:44:41;20.70;99.90
12726;DHT22;6427;49.754;6.106;2023-07-31T13:47:08;20.60;99.90
12726;DHT22;6427;49.754;6.106;2023-07-31T13:49:36;20.60;99.90
12726;DHT22;6427;49.754;6.106;2023-07-31T13:52:04;20.60;99.90
12726;DHT22;6427;49.754;6.106;2023-07-31T13:54:31;20.50;99.90
12726;DHT22;6427;49.754;6.106;2023-07-31T13:56:59;20.70;99.90
12726;DHT22;6427;49.754;6.106;2023-07-31T13:59:26;20.70;99.90
12726;DHT22;6427;49.754;6.106;2023-07-31T14:01:54;20.60;99.90
12726;DHT22;6427;49.754;6.106;2023-07-31T14:04:22;20.80;99.90
12726;DHT22;6427;49.754;6.106;2023-07-31T14:06:49;20.90;99.90
12726;DHT22;6427;49.754;6.106;2023-07-31T14:09:17;20.80;99.90
12726;DHT22;6427;49.754;6.106;2023-07-31T14:11:44;20.70;99.90
12726;DHT22;6427;49.754;6.106;2023-07-31T14:14:12;20.60;99.90
12726;DHT22;6427;49.754;6.106;2023-07-31T14:16:40;20.60;99.90
12726;DHT22;6427;49.754;6.106;2023-07-31T14:19:07;20.50;99.90
12726;DHT22;6427;49.754;6.106;2023-07-31T14:21:36;20.50;99.90
12726;DHT22;6427;49.754;6.106;2023-07-31T14:24:03;20.50;99.90
12726;DHT22;6427;49.754;6.106;2023-07-31T14:26:31;20.50;99.90
12726;DHT22;6427;49.754;6.106;2023-07-31T14:28:58;20.80;99.90
12726;DHT22;6427;49.754;6.106;2023-07-31T14:31:27;20.80;99.90
12726;DHT22;6427;49.754;6.106;2023-07-31T14:33:54;20.80;99.90
12726;DHT22;6427;49.754;6.106;2023-07-31T14:36:22;20.90;99.90
12726;DHT22;6427;49.754;6.106;2023-07-31T14:38:50;20.90;99.90
12726;DHT22;6427;49.754;6.106;2023-07-31T14:41:17;20.90;99.90
12726;DHT22;6427;49.754;6.106;2023-07-31T14:43:45;20.90;99.90
12726;DHT22;6427;49.754;6.106;2023-07-31T14:46:13;20.90;99.90
12726;DHT22;6427;49.754;6.106;2023-07-31T14:48:41;20.80;99.90
12726;DHT22;6427;49.754;6.106;2023-07-31T14:51:08;20.80;99.90
12726;DHT22;6427;49.754;6.106;2023-07-31T14:53:36;21.00;99.90
12726;DHT22;6427;49.754;6.106;2023-07-31T14:56:04;21.10;99.90
12726;DHT22;6427;49.754;6.106;2023-07-31T14:58:32;21.10;99.90
12726;DHT22;6427;49.754;6.106;2023-07-31T15:01:00;21.00;99.90
12726;DHT22;6427;49.754;6.106;2023-07-31T15:03:27;20.90;99.90
12726;DHT22;6427;49.754;6.106;2023-07-31T15:05:56;20.70;99.90
12726;DHT22;6427;49.754;6.106;2023-07-31T15:08:23;20.70;99.90
12726;DHT22;6427;49.754;6.106;2023-07-31T15:10:51;20.60;99.90
12726;DHT22;6427;49.754;6.106;2023-07-31T15:13:19;20.60;99.90
12726;DHT22;6427;49.754;6.106;2023-07-31T15:15:47;20.60;99.90
12726;DHT22;6427;49.754;6.106;2023-07-31T15:18:14;20.50;99.90
12726;DHT22;6427;49.754;6.106;2023-07-31T15:20:42;20.50;99.90
12726;DHT22;6427;49.754;6.106;2023-07-31T15:23:10;20.30;99.90
12726;DHT22;6427;49.754;6.106;2023-07-31T15:25:38;20.20;99.90
12726;DHT22;6427;49.754;6.106;2023-07-31T15:28:06;20.40;99.90
12726;DHT22;6427;49.754;6.106;2023-07-31T15:30:35;20.40;99.90
12726;DHT22;6427;49.754;6.106;2023-07-31T15:33:01;20.30;99.90
12726;DHT22;6427;49.754;6.106;2023-07-31T15:35:29;20.20;99.90
12726;DHT22;6427;49.754;6.106;2023-07-31T15:37:57;20.10;99.90
12726;DHT22;6427;49.754;6.106;2023-07-31T15:40:24;20.20;99.90
12726;DHT22;6427;49.754;6.106;2023-07-31T15:42:52;20.20;99.90
12726;DHT22;6427;49.754;6.106;2023-07-31T15:45:19;20.10;99.90
12726;DHT22;6427;49.754;6.106;2023-07-31T15:47:47;20.00;99.90
12726;DHT22;6427;49.754;6.106;2023-07-31T15:50:15;19.90;99.90
12726;DHT22;6427;49.754;6.106;2023-07-31T15:52:42;19.90;99.90
12726;DHT22;6427;49.754;6.106;2023-07-31T15:55:10;19.80;99.90